Time;durP1;ratioP1;P1;durP2;ratioP2;P2;SDS_P1;SDS_P2;PMS_P1;PMS_P2;Temp;Humidity;BMP_temperature;BMP_pressure;BME280_temperature;BME280_humidity;BME280_pressure;Samples;Min_cycle;Max_cycle;Signal;HPM_P1;HPM_P2
2021/04/15 00:02:23;;;;;;;5.90;3.73;;;;;;;;;;5096067;28;20537;-71
2021/04/15 00:05:29;;;;;;;10.10;4.57;;;;;;;;;;5083263;28;20648;-71
2021/04/15 00:08:34;;;;;;;5.97;4.10;;;;;;;;;;5094254;28;20585;-71
2021/04/15 00:11:39;;;;;;;5.87;4.07;;;;;;;;;;5095988;28;20592;-71
2021/04/15 00:14:52;;;;;;;5.83;3.90;;;;;;;;;;5096140;28;20623;-71
2021/04/15 00:17:56;;;;;;;4.90;3.67;;;;;;;;;;5081266;28;20609;-71
2021/04/15 00:21:00;;;;;;;7.03;3.50;;;;;;;;;;5095840;28;20936;-71
2021/04/15 00:24:05;;;;;;;6.43;4.37;;;;;;;;;;5083278;28;21181;-71
2021/04/15 00:27:09;;;;;;;5.67;3.73;;;;;;;;;;5095518;28;20968;-71
2021/04/15 00:30:14;;;;;;;6.20;3.73;;;;;;;;;;5095966;28;20541;-71
2021/04/15 00:33:19;;;;;;;6.23;3.97;;;;;;;;;;5082909;28;20616;-70
2021/04/15 00:36:26;;;;;;;5.83;3.73;;;;;;;;;;5095378;28;20588;-71
2021/04/15 00:39:40;;;;;;;5.63;3.70;;;;;;;;;;5095789;28;20877;-70
2021/04/15 00:42:45;;;;;;;5.67;3.60;;;;;;;;;;5095653;28;20549;-70
2021/04/15 00:45:49;;;;;;;6.30;3.80;;;;;;;;;;5095360;28;20589;-70
2021/04/15 00:48:54;;;;;;;6.73;3.90;;;;;;;;;;5095153;28;20932;-70
2021/04/15 00:52:02;;;;;;;7.97;3.87;;;;;;;;;;5095490;28;20588;-70
2021/04/15 00:55:28;;;;;;;7.17;4.10;;;;;;;;;;5082588;28;21185;-71
2021/04/15 00:58:32;;;;;;;7.07;4.00;;;;;;;;;;5091196;28;20581;-70
2021/04/15 01:01:37;;;;;;;4.67;3.90;;;;;;;;;;5094806;28;20600;-70
2021/04/15 01:04:41;;;;;;;6.77;4.10;;;;;;;;;;5094980;28;20628;-70
2021/04/15 01:07:46;;;;;;;7.63;4.73;;;;;;;;;;5088686;28;20573;-71
2021/04/15 01:11:03;;;;;;;5.73;4.33;;;;;;;;;;5082609;28;21161;-70
2021/04/15 01:14:26;;;;;;;6.63;4.33;;;;;;;;;;5094486;28;20637;-70
2021/04/15 01:17:39;;;;;;;6.70;4.20;;;;;;;;;;5094569;28;20589;-70
2021/04/15 01:20:57;;;;;;;7.83;4.20;;;;;;;;;;5082287;28;20588;-70
2021/04/15 01:24:13;;;;;;;5.23;3.80;;;;;;;;;;5082065;28;20612;-70
2021/04/15 01:27:36;;;;;;;6.17;4.40;;;;;;;;;;5081650;28;20589;-70
2021/04/15 01:30:44;;;;;;;6.37;4.13;;;;;;;;;;5082212;28;20589;-70
2021/04/15 01:33:57;;;;;;;6.00;4.00;;;;;;;;;;5094383;28;20652;-70
2021/04/15 01:37:25;;;;;;;5.57;3.87;;;;;;;;;;5093937;28;20952;-70
2021/04/15 01:40:35;;;;;;;5.50;4.10;;;;;;;;;;5094859;28;20541;-70
2021/04/15 01:43:45;;;;;;;7.03;4.43;;;;;;;;;;5081441;28;20980;-70
2021/04/15 01:46:53;;;;;;;6.73;4.43;;;;;;;;;;5093911;28;20589;-70
2021/04/15 01:50:05;;;;;;;9.03;4.17;;;;;;;;;;5082158;28;20537;-70
2021/04/15 01:53:21;;;;;;;6.50;4.60;;;;;;;;;;5081841;28;21119;-70
2021/04/15 01:56:32;;;;;;;5.60;4.23;;;;;;;;;;5093994;28;20585;-70
2021/04/15 01:59:41;;;;;;;8.30;4.40;;;;;;;;;;5073830;28;20530;-70
2021/04/15 02:02:50;;;;;;;8.03;4.90;;;;;;;;;;5092647;28;20585;-70
2021/04/15 02:06:00;;;;;;;7.63;4.13;;;;;;;;;;5093555;28;20596;-70
2021/04/15 02:09:08;;;;;;;6.80;4.10;;;;;;;;;;5093582;28;20537;-70
2021/04/15 02:12:19;;;;;;;5.70;4.27;;;;;;;;;;5060990;28;20554;-70
2021/04/15 02:15:30;;;;;;;5.63;4.10;;;;;;;;;;5073344;28;20621;-70
2021/04/15 02:18:45;;;;;;;7.97;4.23;;;;;;;;;;5073361;28;20598;-70
2021/04/15 02:22:04;;;;;;;6.00;4.20;;;;;;;;;;5092361;28;21138;-70
2021/04/15 02:25:34;;;;;;;7.17;4.40;;;;;;;;;;5073273;28;20625;-69
2021/04/15 02:28:50;;;;;;;5.07;3.63;;;;;;;;;;5093274;28;20593;-70
2021/04/15 02:32:10;;;;;;;8.20;4.13;;;;;;;;;;5093217;28;20612;-70
2021/04/15 02:35:23;;;;;;;7.57;4.30;;;;;;;;;;5069405;28;20633;-70
2021/04/15 02:38:37;;;;;;;7.77;4.50;;;;;;;;;;5093164;28;20597;-70
2021/04/15 02:41:43;;;;;;;6.87;4.27;;;;;;;;;;5093166;28;20597;-70
2021/04/15 02:44:53;;;;;;;7.80;4.10;;;;;;;;;;5093170;28;20628;-70
2021/04/15 02:48:10;;;;;;;6.30;4.13;;;;;;;;;;5093434;28;20557;-70
2021/04/15 02:51:24;;;;;;;6.90;3.80;;;;;;;;;;5092969;28;20597;-70
2021/04/15 02:54:33;;;;;;;5.63;3.90;;;;;;;;;;5072946;28;20646;-70
2021/04/15 02:57:52;;;;;;;4.50;3.87;;;;;;;;;;5073005;28;20890;-70
2021/04/15 03:00:57;;;;;;;6.27;3.93;;;;;;;;;;5073741;28;20640;-70
2021/04/15 03:04:04;;;;;;;6.57;4.20;;;;;;;;;;5084482;23;20693;-71
2021/04/15 03:07:11;;;;;;;7.67;4.53;;;;;;;;;;5072276;28;20593;-71
2021/04/15 03:10:24;;;;;;;5.00;3.90;;;;;;;;;;5072361;28;20597;-71
2021/04/15 03:13:36;;;;;;;6.00;3.80;;;;;;;;;;5072977;28;20586;-71
2021/04/15 03:16:44;;;;;;;12.03;4.63;;;;;;;;;;5071055;28;20594;-71
2021/04/15 03:19:57;;;;;;;7.27;4.37;;;;;;;;;;5052784;28;21180;-71
2021/04/15 03:23:12;;;;;;;7.27;4.70;;;;;;;;;;5056168;28;21285;-71
2021/04/15 03:26:29;;;;;;;5.67;4.03;;;;;;;;;;5065266;28;20582;-71
2021/04/15 03:29:44;;;;;;;7.33;4.47;;;;;;;;;;5044629;28;21065;-71
2021/04/15 03:33:03;;;;;;;6.00;3.87;;;;;;;;;;5056430;28;20603;-71
2021/04/15 03:36:37;;;;;;;6.53;4.40;;;;;;;;;;5060319;28;20593;-71
2021/04/15 03:39:43;;;;;;;5.67;3.73;;;;;;;;;;5064328;28;20534;-71
2021/04/15 03:42:54;;;;;;;6.70;4.27;;;;;;;;;;5073282;28;21202;-71
2021/04/15 03:46:24;;;;;;;5.60;3.90;;;;;;;;;;5067901;28;20590;-71
2021/04/15 03:49:51;;;;;;;6.20;3.97;;;;;;;;;;5056227;28;20586;-71
2021/04/15 03:53:17;;;;;;;7.43;4.77;;;;;;;;;;5060400;28;20610;-71
2021/04/15 03:56:31;;;;;;;7.00;4.10;;;;;;;;;;5076386;28;20546;-71
2021/04/15 03:59:35;;;;;;;4.87;4.03;;;;;;;;;;5070360;28;20618;-71
2021/04/15 04:02:43;;;;;;;5.87;4.20;;;;;;;;;;5057972;28;21147;-71
2021/04/15 04:05:54;;;;;;;5.77;4.30;;;;;;;;;;5055976;28;20594;-71
2021/04/15 04:09:09;;;;;;;8.33;4.83;;;;;;;;;;5043913;28;20883;-71
2021/04/15 04:12:19;;;;;;;7.47;4.27;;;;;;;;;;5055789;28;20595;-71
2021/04/15 04:15:32;;;;;;;8.50;4.87;;;;;;;;;;5056749;28;20635;-71
2021/04/15 04:18:50;;;;;;;8.67;4.80;;;;;;;;;;5055631;28;21215;-71
2021/04/15 04:22:31;;;;;;;6.73;4.20;;;;;;;;;;5056204;28;20542;-71
2021/04/15 04:25:42;;;;;;;8.73;4.53;;;;;;;;;;5074582;28;20621;-71
2021/04/15 04:29:14;;;;;;;10.17;4.27;;;;;;;;;;5051744;28;21088;-71
2021/04/15 04:32:22;;;;;;;10.33;5.00;;;;;;;;;;5063099;28;20593;-71
2021/04/15 04:35:30;;;;;;;8.00;4.70;;;;;;;;;;5057038;28;21283;-71
2021/04/15 04:38:35;;;;;;;7.07;4.40;;;;;;;;;;5056419;28;20595;-71
2021/04/15 04:41:51;;;;;;;8.03;4.60;;;;;;;;;;5055380;28;20547;-71
2021/04/15 04:44:59;;;;;;;5.77;4.13;;;;;;;;;;5055594;28;21187;-71
2021/04/15 04:48:19;;;;;;;6.67;4.97;;;;;;;;;;5044696;28;20618;-70
2021/04/15 04:51:37;;;;;;;8.20;4.43;;;;;;;;;;5042979;28;20540;-70
2021/04/15 04:54:42;;;;;;;7.63;4.70;;;;;;;;;;5054955;28;20650;-70
2021/04/15 04:57:46;;;;;;;6.43;4.13;;;;;;;;;;5042706;28;20598;-70
2021/04/15 05:00:52;;;;;;;6.87;4.23;;;;;;;;;;5042915;28;20543;-70
2021/04/15 05:03:58;;;;;;;7.40;3.77;;;;;;;;;;5065503;28;20650;-70
2021/04/15 05:07:05;;;;;;;6.37;4.10;;;;;;;;;;5073586;28;20590;-78
2021/04/15 05:10:14;;;;;;;12.83;4.10;;;;;;;;;;5064612;28;20601;-78
2021/04/15 05:13:30;;;;;;;5.07;3.70;;;;;;;;;;5020154;28;20655;-77
2021/04/15 05:16:41;;;;;;;6.37;4.00;;;;;;;;;;5050372;28;20622;-77
2021/04/15 05:19:46;;;;;;;6.77;4.83;;;;;;;;;;5053080;23;20694;-77
2021/04/15 05:23:14;;;;;;;18.87;11.10;;;;;;;;;;5016303;28;20552;-77
2021/04/15 05:26:23;;;;;;;9.47;6.50;;;;;;;;;;5023920;28;20930;-77
2021/04/15 05:29:39;;;;;;;10.60;4.87;;;;;;;;;;5036155;28;20605;-71
2021/04/15 05:32:46;;;;;;;8.90;5.03;;;;;;;;;;5028118;28;20944;-71
2021/04/15 05:35:55;;;;;;;6.33;4.23;;;;;;;;;;5015542;28;20580;-71
2021/04/15 05:39:02;;;;;;;10.07;4.77;;;;;;;;;;5034576;28;20591;-71
2021/04/15 05:42:35;;;;;;;11.40;4.67;;;;;;;;;;5033426;28;21192;-71
2021/04/15 05:45:42;;;;;;;9.23;4.80;;;;;;;;;;5032474;28;20575;-71
2021/04/15 05:48:49;;;;;;;8.33;5.57;;;;;;;;;;5034028;28;21164;-71
2021/04/15 05:52:16;;;;;;;10.60;5.70;;;;;;;;;;5033268;28;21184;-71
2021/04/15 05:55:28;;;;;;;9.93;5.00;;;;;;;;;;5021560;28;21232;-71
2021/04/15 05:58:59;;;;;;;8.63;5.27;;;;;;;;;;5033304;28;20958;-71
2021/04/15 06:02:10;;;;;;;10.00;5.03;;;;;;;;;;5019000;28;20588;-71
2021/04/15 06:05:36;;;;;;;9.93;5.50;;;;;;;;;;5030436;28;20639;-71
2021/04/15 06:08:42;;;;;;;8.30;5.37;;;;;;;;;;5022328;28;20963;-71
2021/04/15 06:12:05;;;;;;;10.17;5.63;;;;;;;;;;5020936;28;20592;-71
2021/04/15 06:15:15;;;;;;;10.20;7.57;;;;;;;;;;5020786;28;20656;-71
2021/04/15 06:18:29;;;;;;;23.07;12.30;;;;;;;;;;5032734;28;20548;-71
2021/04/15 06:21:43;;;;;;;11.90;7.30;;;;;;;;;;5018745;28;20580;-71
2021/04/15 06:24:53;;;;;;;17.47;7.33;;;;;;;;;;5032924;28;20623;-71
2021/04/15 06:28:02;;;;;;;8.50;6.27;;;;;;;;;;5021210;28;20591;-71
2021/04/15 06:31:29;;;;;;;12.33;6.73;;;;;;;;;;5032372;28;20591;-71
2021/04/15 06:34:34;;;;;;;8.83;6.23;;;;;;;;;;5032965;28;20659;-71
2021/04/15 06:37:44;;;;;;;11.20;6.57;;;;;;;;;;5032938;28;20587;-71
2021/04/15 06:41:00;;;;;;;11.00;6.33;;;;;;;;;;5033449;28;20548;-71
2021/04/15 06:44:16;;;;;;;12.20;6.70;;;;;;;;;;5004415;28;20643;-71
2021/04/15 06:47:31;;;;;;;17.67;7.17;;;;;;;;;;5017815;28;20572;-71
2021/04/15 06:51:01;;;;;;;10.10;5.77;;;;;;;;;;5030650;28;20576;-71
2021/04/15 06:54:33;;;;;;;14.17;6.27;;;;;;;;;;5033155;28;20647;-71
2021/04/15 06:58:05;;;;;;;10.47;6.30;;;;;;;;;;5009417;28;20832;-71
2021/04/15 07:01:38;;;;;;;9.33;6.97;;;;;;;;;;5017869;28;20592;-71
2021/04/15 07:04:59;;;;;;;22.27;12.30;;;;;;;;;;4997566;28;21248;-71
2021/04/15 07:08:08;;;;;;;19.77;9.67;;;;;;;;;;5009742;28;20608;-72
2021/04/15 07:11:42;;;;;;;18.97;10.37;;;;;;;;;;5000880;28;20599;-71
2021/04/15 07:15:18;;;;;;;13.07;8.43;;;;;;;;;;4989730;28;21268;-71
2021/04/15 07:19:00;;;;;;;18.37;12.00;;;;;;;;;;5029199;28;20938;-72
2021/04/15 07:22:33;;;;;;;13.27;8.23;;;;;;;;;;5018615;28;20961;-71
2021/04/15 07:25:43;;;;;;;10.93;6.47;;;;;;;;;;5010930;28;20596;-72
2021/04/15 07:29:29;;;;;;;11.53;6.23;;;;;;;;;;5023995;28;20584;-71
2021/04/15 07:33:07;;;;;;;15.57;6.67;;;;;;;;;;5022947;28;20607;-72
2021/04/15 07:37:08;;;;;;;20.83;6.63;;;;;;;;;;5016845;28;20595;-71
2021/04/15 07:40:20;;;;;;;10.03;6.23;;;;;;;;;;4962897;28;20630;-72
2021/04/15 07:43:55;;;;;;;7.97;6.23;;;;;;;;;;5013258;28;20607;-72
2021/04/15 07:47:27;;;;;;;12.63;6.27;;;;;;;;;;5016414;28;20583;-72
2021/04/15 07:50:44;;;;;;;10.20;6.73;;;;;;;;;;5010588;28;20223;-72
2021/04/15 07:54:15;;;;;;;10.30;6.30;;;;;;;;;;5016885;28;20568;-72
2021/04/15 07:57:50;;;;;;;6.80;5.23;;;;;;;;;;5019791;28;20189;-72
2021/04/15 08:01:04;;;;;;;6.57;4.57;;;;;;;;;;5029048;28;20177;-72
2021/04/15 08:04:21;;;;;;;7.07;5.97;;;;;;;;;;5028564;28;20552;-72
2021/04/15 08:07:36;;;;;;;12.57;5.50;;;;;;;;;;5028728;28;20197;-71
2021/04/15 08:10:46;;;;;;;8.73;4.97;;;;;;;;;;5032243;28;20182;-72
2021/04/15 08:14:35;;;;;;;9.57;3.87;;;;;;;;;;5032269;28;20220;-72
2021/04/15 08:17:58;;;;;;;10.97;5.33;;;;;;;;;;5032268;28;20186;-72
2021/04/15 08:21:18;;;;;;;9.03;4.43;;;;;;;;;;5032359;28;20192;-72
2021/04/15 08:25:15;;;;;;;6.07;3.90;;;;;;;;;;5031563;28;20945;-72
2021/04/15 08:28:48;;;;;;;14.70;7.83;;;;;;;;;;5016267;28;20197;-72
2021/04/15 08:32:02;;;;;;;23.50;13.40;;;;;;;;;;5040635;28;20188;-72
2021/04/15 08:35:36;;;;;;;13.87;8.40;;;;;;;;;;5034824;28;20232;-72
2021/04/15 08:38:43;;;;;;;30.37;16.07;;;;;;;;;;5019920;28;20181;-72
2021/04/15 08:42:07;;;;;;;19.53;11.40;;;;;;;;;;5032355;28;20185;-72
2021/04/15 08:45:14;;;;;;;13.80;8.70;;;;;;;;;;5019603;28;20228;-71
2021/04/15 08:48:41;;;;;;;4.70;3.83;;;;;;;;;;5031408;28;20192;-72
2021/04/15 08:51:53;;;;;;;5.87;4.33;;;;;;;;;;5031811;28;20197;-71
2021/04/15 08:55:16;;;;;;;5.73;3.47;;;;;;;;;;5031778;28;20228;-71
2021/04/15 08:58:40;;;;;;;4.80;4.30;;;;;;;;;;5031287;28;20177;-71
2021/04/15 09:01:57;;;;;;;6.17;3.77;;;;;;;;;;5004850;28;20209;-71
2021/04/15 09:05:02;;;;;;;4.40;2.90;;;;;;;;;;5027361;28;20552;-71
2021/04/15 09:08:22;;;;;;;8.40;3.30;;;;;;;;;;5011757;28;20185;-71
2021/04/15 09:11:40;;;;;;;5.07;3.20;;;;;;;;;;5029541;28;20201;-72
2021/04/15 09:14:51;;;;;;;4.00;2.67;;;;;;;;;;5031266;28;20706;-71
2021/04/15 09:18:05;;;;;;;5.70;2.60;;;;;;;;;;5031424;28;20173;-71
2021/04/15 09:21:48;;;;;;;4.67;3.27;;;;;;;;;;5030934;28;20189;-71
2021/04/15 09:25:26;;;;;;;5.13;2.87;;;;;;;;;;4932166;28;20223;-72
2021/04/15 09:28:38;;;;;;;6.67;2.70;;;;;;;;;;5011227;28;20181;-71
2021/04/15 09:31:54;;;;;;;3.30;2.57;;;;;;;;;;5011214;28;20189;-71
2021/04/15 09:35:10;;;;;;;6.57;2.90;;;;;;;;;;5010693;28;20453;-71
2021/04/15 09:38:39;;;;;;;4.90;2.90;;;;;;;;;;5010977;28;20182;-71
2021/04/15 09:41:48;;;;;;;7.37;3.43;;;;;;;;;;4998886;28;20185;-71
2021/04/15 09:45:23;;;;;;;9.57;2.93;;;;;;;;;;5011125;28;20205;-71
2021/04/15 09:48:49;;;;;;;7.33;3.50;;;;;;;;;;5009687;28;20189;-71
2021/04/15 09:52:04;;;;;;;6.33;3.10;;;;;;;;;;5011012;28;20931;-71
2021/04/15 09:55:34;;;;;;;4.50;2.97;;;;;;;;;;5011005;28;20945;-71
2021/04/15 09:58:57;;;;;;;6.67;3.17;;;;;;;;;;5010416;28;20181;-71
2021/04/15 10:02:22;;;;;;;6.23;2.70;;;;;;;;;;4998478;28;20190;-73
2021/04/15 10:06:03;;;;;;;14.37;5.53;;;;;;;;;;5014068;28;20554;-73
2021/04/15 10:09:30;;;;;;;3.43;2.50;;;;;;;;;;5002175;28;20185;-74
2021/04/15 10:12:55;;;;;;;13.93;5.43;;;;;;;;;;5013991;28;20628;-74
2021/04/15 10:16:22;;;;;;;4.70;2.70;;;;;;;;;;5001721;28;20217;-74
2021/04/15 10:19:32;;;;;;;10.67;3.60;;;;;;;;;;5025247;28;20213;-74
2021/04/15 10:22:46;;;;;;;10.17;4.80;;;;;;;;;;5015049;28;20173;-74
2021/04/15 10:26:26;;;;;;;2.70;2.13;;;;;;;;;;5024179;28;20177;-74
2021/04/15 10:29:37;;;;;;;3.00;2.10;;;;;;;;;;5009833;28;20193;-74
2021/04/15 10:33:05;;;;;;;3.17;2.30;;;;;;;;;;5017682;28;20189;-74
2021/04/15 10:36:48;;;;;;;7.20;2.67;;;;;;;;;;5012322;28;20232;-74
2021/04/15 10:40:38;;;;;;;3.40;2.07;;;;;;;;;;5050144;23;20228;-72
2021/04/15 10:44:22;;;;;;;3.43;2.37;;;;;;;;;;5046663;28;20227;-73
2021/04/15 10:48:01;;;;;;;5.33;3.07;;;;;;;;;;5022839;28;20188;-74
2021/04/15 10:51:08;;;;;;;3.53;2.13;;;;;;;;;;5036457;28;20193;-73
2021/04/15 10:54:32;;;;;;;3.07;2.70;;;;;;;;;;5016588;28;20224;-73
2021/04/15 10:57:36;;;;;;;6.00;2.17;;;;;;;;;;5025210;28;20169;-73
2021/04/15 11:00:40;;;;;;;4.97;3.43;;;;;;;;;;5048581;28;20184;-73
2021/04/15 11:03:46;;;;;;;2.63;2.20;;;;;;;;;;5049244;28;20220;-73
2021/04/15 11:06:56;;;;;;;5.80;2.80;;;;;;;;;;5017543;28;20635;-74
2021/04/15 11:10:10;;;;;;;3.37;2.40;;;;;;;;;;5034824;28;20200;-74
2021/04/15 11:13:17;;;;;;;4.63;2.90;;;;;;;;;;5050860;28;20203;-73
2021/04/15 11:16:23;;;;;;;5.30;2.73;;;;;;;;;;5048979;28;20632;-73
2021/04/15 11:19:29;;;;;;;4.47;2.37;;;;;;;;;;5048863;28;20204;-73
2021/04/15 11:22:35;;;;;;;4.83;2.67;;;;;;;;;;5050869;28;20200;-73
2021/04/15 11:25:51;;;;;;;5.43;3.00;;;;;;;;;;5033169;28;20191;-73
2021/04/15 11:28:58;;;;;;;4.73;2.93;;;;;;;;;;5041121;28;20196;-73
2021/04/15 11:32:25;;;;;;;4.73;3.30;;;;;;;;;;5034543;28;20188;-73
2021/04/15 11:35:29;;;;;;;5.00;2.70;;;;;;;;;;5049058;28;20216;-73
2021/04/15 11:38:33;;;;;;;5.47;2.80;;;;;;;;;;5048284;28;20196;-73
2021/04/15 11:41:47;;;;;;;4.00;2.43;;;;;;;;;;5046282;28;20578;-74
2021/04/15 11:44:54;;;;;;;3.90;2.60;;;;;;;;;;5040101;28;20220;-73
2021/04/15 11:48:33;;;;;;;3.13;2.37;;;;;;;;;;5032870;28;20521;-73
2021/04/15 11:51:56;;;;;;;4.20;2.57;;;;;;;;;;5034513;28;20185;-73
2021/04/15 11:55:10;;;;;;;3.33;2.40;;;;;;;;;;5049620;28;20212;-73
2021/04/15 11:58:32;;;;;;;3.27;2.90;;;;;;;;;;5040809;28;20196;-72
2021/04/15 12:01:37;;;;;;;3.60;2.77;;;;;;;;;;5052632;28;20180;-73
2021/04/15 12:04:41;;;;;;;3.83;3.13;;;;;;;;;;5048982;28;20219;-72
2021/04/15 12:08:18;;;;;;;6.27;3.30;;;;;;;;;;5033347;28;20568;-73
2021/04/15 12:11:27;;;;;;;4.33;3.30;;;;;;;;;;5052663;28;20200;-72
2021/04/15 12:14:34;;;;;;;5.53;3.33;;;;;;;;;;5048681;28;20221;-72
2021/04/15 12:17:58;;;;;;;5.60;3.40;;;;;;;;;;5035689;28;20185;-72
2021/04/15 12:21:17;;;;;;;9.97;5.37;;;;;;;;;;5035792;28;20202;-72
2021/04/15 12:24:43;;;;;;;10.17;5.90;;;;;;;;;;5043308;28;20224;-73
2021/04/15 12:27:50;;;;;;;5.60;3.73;;;;;;;;;;5046814;28;20188;-73
2021/04/15 12:31:15;;;;;;;7.20;3.57;;;;;;;;;;5036152;28;20177;-73
2021/04/15 12:34:19;;;;;;;4.10;3.00;;;;;;;;;;5035537;28;20218;-73
2021/04/15 12:37:38;;;;;;;6.70;3.30;;;;;;;;;;5036345;28;20220;-73
2021/04/15 12:40:46;;;;;;;3.97;2.60;;;;;;;;;;5035360;28;20205;-73
2021/04/15 12:44:13;;;;;;;5.20;2.47;;;;;;;;;;5035636;28;20552;-73
2021/04/15 12:47:18;;;;;;;4.30;2.53;;;;;;;;;;5035462;28;20174;-73
2021/04/15 12:50:23;;;;;;;3.97;3.13;;;;;;;;;;5035553;28;20624;-73
2021/04/15 12:53:29;;;;;;;5.43;3.57;;;;;;;;;;5035373;28;20181;-73
2021/04/15 12:56:53;;;;;;;6.67;3.07;;;;;;;;;;5045663;28;20699;-73
2021/04/15 13:00:02;;;;;;;7.80;3.87;;;;;;;;;;5055544;28;20189;-73
2021/04/15 13:03:22;;;;;;;5.27;3.30;;;;;;;;;;5054867;28;20192;-73
2021/04/15 13:07:01;;;;;;;5.70;2.97;;;;;;;;;;5054639;28;20180;-73
2021/04/15 13:10:14;;;;;;;4.63;3.37;;;;;;;;;;5055361;28;20176;-73
2021/04/15 13:13:40;;;;;;;8.63;3.40;;;;;;;;;;5065637;28;20575;-73
2021/04/15 13:16:48;;;;;;;4.23;2.37;;;;;;;;;;5054912;28;20651;-73
2021/04/15 13:19:55;;;;;;;4.60;3.00;;;;;;;;;;5054918;28;20184;-73
2021/04/15 13:23:05;;;;;;;4.30;3.23;;;;;;;;;;5054530;28;20180;-73
2021/04/15 13:26:10;;;;;;;4.10;2.67;;;;;;;;;;5054267;28;20176;-72
2021/04/15 13:29:18;;;;;;;5.27;2.90;;;;;;;;;;5045432;28;20196;-74
2021/04/15 13:32:57;;;;;;;3.70;2.70;;;;;;;;;;5030181;28;20528;-74
2021/04/15 13:36:01;;;;;;;7.60;2.50;;;;;;;;;;5034272;28;20209;-74
2021/04/15 13:39:11;;;;;;;3.03;2.20;;;;;;;;;;5034255;28;20671;-74
2021/04/15 13:42:33;;;;;;;3.27;2.33;;;;;;;;;;5053520;28;20661;-74
2021/04/15 13:45:41;;;;;;;3.70;2.33;;;;;;;;;;5052364;28;20215;-73
2021/04/15 13:48:50;;;;;;;4.17;2.40;;;;;;;;;;5054021;28;20532;-73
2021/04/15 13:52:34;;;;;;;3.80;2.70;;;;;;;;;;5045739;28;20185;-73
2021/04/15 13:55:44;;;;;;;3.53;2.27;;;;;;;;;;5046229;28;20196;-73
2021/04/15 13:58:48;;;;;;;4.63;2.40;;;;;;;;;;5053595;28;20566;-73
2021/04/15 14:01:52;;;;;;;2.93;1.83;;;;;;;;;;5063822;28;20196;-73
2021/04/15 14:05:02;;;;;;;3.27;2.20;;;;;;;;;;5045096;28;20219;-73
2021/04/15 14:08:35;;;;;;;11.30;2.47;;;;;;;;;;5033009;28;20181;-74
2021/04/15 14:11:49;;;;;;;6.67;2.20;;;;;;;;;;5036310;28;20188;-73
2021/04/15 14:14:53;;;;;;;4.00;2.60;;;;;;;;;;5042007;28;20220;-73
2021/04/15 14:18:23;;;;;;;3.73;2.87;;;;;;;;;;5034913;28;20539;-73
2021/04/15 14:21:34;;;;;;;4.17;2.40;;;;;;;;;;5011358;28;20185;-73
2021/04/15 14:24:39;;;;;;;3.63;2.57;;;;;;;;;;5052128;28;20220;-73
2021/04/15 14:27:43;;;;;;;6.00;2.60;;;;;;;;;;5042828;28;20192;-73
2021/04/15 14:30:49;;;;;;;2.50;2.30;;;;;;;;;;5053805;28;20199;-73
2021/04/15 14:33:55;;;;;;;3.87;2.40;;;;;;;;;;5051485;28;20216;-73
2021/04/15 14:37:02;;;;;;;2.73;1.90;;;;;;;;;;5045731;28;20205;-73
2021/04/15 14:40:41;;;;;;;1.93;1.73;;;;;;;;;;5033164;28;20204;-74
2021/04/15 14:43:46;;;;;;;2.80;1.83;;;;;;;;;;5015319;28;20559;-73
2021/04/15 14:46:51;;;;;;;3.83;2.27;;;;;;;;;;5053232;28;20172;-73
2021/04/15 14:50:01;;;;;;;4.17;1.50;;;;;;;;;;5033174;28;20176;-73
2021/04/15 14:53:13;;;;;;;2.97;1.87;;;;;;;;;;5033231;28;20181;-73
2021/04/15 14:56:41;;;;;;;3.00;2.03;;;;;;;;;;5050016;28;20208;-72
2021/04/15 14:59:46;;;;;;;6.70;2.20;;;;;;;;;;5052695;28;20643;-73
2021/04/15 15:02:54;;;;;;;4.03;2.23;;;;;;;;;;5053061;28;20199;-73
2021/04/15 15:06:00;;;;;;;2.97;1.93;;;;;;;;;;5052806;28;20192;-73
2021/04/15 15:09:06;;;;;;;4.10;2.37;;;;;;;;;;5038529;28;20196;-73
2021/04/15 15:12:14;;;;;;;14.43;2.73;;;;;;;;;;5037675;28;20181;-73
2021/04/15 15:15:20;;;;;;;4.30;2.50;;;;;;;;;;5036733;28;20227;-73
2021/04/15 15:18:28;;;;;;;5.97;3.13;;;;;;;;;;5054702;28;20219;-73
2021/04/15 15:21:44;;;;;;;14.20;7.13;;;;;;;;;;5039265;28;20192;-72
2021/04/15 15:24:48;;;;;;;9.10;3.53;;;;;;;;;;5036943;28;20217;-72
2021/04/15 15:27:57;;;;;;;8.13;3.20;;;;;;;;;;5045226;28;20188;-72
2021/04/15 15:31:16;;;;;;;4.23;2.53;;;;;;;;;;5055107;28;20564;-72
2021/04/15 15:34:29;;;;;;;2.87;2.50;;;;;;;;;;5055756;28;20207;-72
2021/04/15 15:37:42;;;;;;;4.00;3.20;;;;;;;;;;5049344;28;20209;-72
2021/04/15 15:40:48;;;;;;;7.83;5.23;;;;;;;;;;5036438;28;20212;-72
2021/04/15 15:44:10;;;;;;;3.53;2.63;;;;;;;;;;5024712;28;20217;-73
2021/04/15 15:47:39;;;;;;;4.03;3.23;;;;;;;;;;5039829;28;20207;-72
2021/04/15 15:50:54;;;;;;;3.63;2.90;;;;;;;;;;5050100;28;20191;-72
2021/04/15 15:53:58;;;;;;;5.53;3.53;;;;;;;;;;5056175;28;20221;-72
2021/04/15 15:57:16;;;;;;;8.73;5.43;;;;;;;;;;5056236;28;20678;-72
2021/04/15 16:00:23;;;;;;;4.73;3.23;;;;;;;;;;5043864;28;20204;-73
2021/04/15 16:03:29;;;;;;;3.67;2.83;;;;;;;;;;5054135;28;20188;-72
2021/04/15 16:06:33;;;;;;;5.40;2.90;;;;;;;;;;5053842;28;20184;-72
2021/04/15 16:09:40;;;;;;;12.00;4.37;;;;;;;;;;5051703;28;20651;-71
2021/04/15 16:12:53;;;;;;;8.60;3.00;;;;;;;;;;5049081;28;20184;-71
2021/04/15 16:15:57;;;;;;;2.90;2.47;;;;;;;;;;5045679;28;20188;-72
2021/04/15 16:19:02;;;;;;;5.40;2.60;;;;;;;;;;5032424;28;20184;-73
2021/04/15 16:22:07;;;;;;;11.70;3.43;;;;;;;;;;5031871;28;20525;-72
2021/04/15 16:25:12;;;;;;;6.63;3.27;;;;;;;;;;5014575;28;20215;-71
2021/04/15 16:28:17;;;;;;;3.10;2.80;;;;;;;;;;5034939;28;20185;-72
2021/04/15 16:31:21;;;;;;;19.40;3.97;;;;;;;;;;5039997;28;20946;-72
2021/04/15 16:34:40;;;;;;;4.00;2.80;;;;;;;;;;5035611;28;20216;-72
2021/04/15 16:37:46;;;;;;;4.73;2.50;;;;;;;;;;5040888;28;20212;-72
2021/04/15 16:40:50;;;;;;;3.40;2.50;;;;;;;;;;5051206;28;20675;-72
2021/04/15 16:43:55;;;;;;;5.40;2.77;;;;;;;;;;5032004;28;20564;-72
2021/04/15 16:46:59;;;;;;;4.67;3.23;;;;;;;;;;5033247;28;20193;-72
2021/04/15 16:50:07;;;;;;;4.20;2.50;;;;;;;;;;5051774;28;20519;-72
2021/04/15 16:53:12;;;;;;;5.70;2.83;;;;;;;;;;5019651;28;20201;-72
2021/04/15 16:56:16;;;;;;;6.43;2.73;;;;;;;;;;5037838;28;20200;-71
2021/04/15 16:59:23;;;;;;;4.80;3.07;;;;;;;;;;5050432;28;20192;-71
2021/04/15 17:02:28;;;;;;;3.00;2.30;;;;;;;;;;5051818;28;20619;-71
2021/04/15 17:05:32;;;;;;;3.60;2.47;;;;;;;;;;5031911;28;20212;-72
2021/04/15 17:08:36;;;;;;;3.33;3.00;;;;;;;;;;5021252;28;20184;-71
2021/04/15 17:11:42;;;;;;;3.97;2.80;;;;;;;;;;5032540;28;20832;-72
2021/04/15 17:14:46;;;;;;;4.87;3.00;;;;;;;;;;5031449;28;20216;-72
2021/04/15 17:17:51;;;;;;;3.23;2.70;;;;;;;;;;5038723;28;20216;-72
2021/04/15 17:20:56;;;;;;;5.67;2.30;;;;;;;;;;5050155;28;20200;-72
2021/04/15 17:24:00;;;;;;;2.97;2.67;;;;;;;;;;5031160;28;20221;-72
2021/04/15 17:27:05;;;;;;;5.77;2.73;;;;;;;;;;5050064;28;20204;-71
2021/04/15 17:30:10;;;;;;;5.00;2.93;;;;;;;;;;5031058;28;20177;-72
2021/04/15 17:33:15;;;;;;;3.87;3.23;;;;;;;;;;5030613;28;20656;-72
2021/04/15 17:36:20;;;;;;;3.93;2.67;;;;;;;;;;5054768;28;20658;-72
2021/04/15 17:39:29;;;;;;;4.80;3.70;;;;;;;;;;5050111;28;20540;-71
2021/04/15 17:42:34;;;;;;;7.73;4.77;;;;;;;;;;5050049;28;20208;-72
2021/04/15 17:45:39;;;;;;;6.93;4.87;;;;;;;;;;5036272;28;20208;-72
2021/04/15 17:48:44;;;;;;;10.80;7.40;;;;;;;;;;5050209;28;20717;-72
2021/04/15 17:51:51;;;;;;;4.93;3.70;;;;;;;;;;5029414;28;20640;-71
2021/04/15 17:54:55;;;;;;;4.30;3.23;;;;;;;;;;5047541;28;20219;-72
2021/04/15 17:57:59;;;;;;;6.33;2.83;;;;;;;;;;5029858;28;20216;-73
2021/04/15 18:01:04;;;;;;;6.97;4.17;;;;;;;;;;5030164;28;20188;-72
2021/04/15 18:04:08;;;;;;;3.33;2.70;;;;;;;;;;5030046;28;20216;-73
2021/04/15 18:07:17;;;;;;;4.63;2.80;;;;;;;;;;5030863;28;20196;-73
2021/04/15 18:10:31;;;;;;;4.10;2.50;;;;;;;;;;5041949;28;20212;-73
2021/04/15 18:13:36;;;;;;;4.57;3.33;;;;;;;;;;5018042;28;20216;-74
2021/04/15 18:16:40;;;;;;;2.90;2.50;;;;;;;;;;5048942;28;20540;-72
2021/04/15 18:19:45;;;;;;;5.50;3.00;;;;;;;;;;5023308;28;20528;-72
2021/04/15 18:22:50;;;;;;;5.43;2.90;;;;;;;;;;5043162;28;20200;-72
2021/04/15 18:25:56;;;;;;;4.60;2.70;;;;;;;;;;5042224;28;20602;-71
2021/04/15 18:29:04;;;;;;;4.10;2.77;;;;;;;;;;5049901;28;20559;-72
2021/04/15 18:32:11;;;;;;;5.70;2.60;;;;;;;;;;5029959;28;20932;-72
2021/04/15 18:35:16;;;;;;;3.40;2.30;;;;;;;;;;5029074;28;20631;-72
2021/04/15 18:38:22;;;;;;;4.23;3.17;;;;;;;;;;5029088;28;20607;-72
2021/04/15 18:41:27;;;;;;;5.27;3.77;;;;;;;;;;5046723;28;21192;-72
2021/04/15 18:44:32;;;;;;;5.10;3.57;;;;;;;;;;5038823;28;20647;-71
2021/04/15 18:47:36;;;;;;;10.97;5.13;;;;;;;;;;5043316;28;20595;-72
2021/04/15 18:50:41;;;;;;;12.77;4.97;;;;;;;;;;5049701;28;20641;-72
2021/04/15 18:53:46;;;;;;;16.70;10.03;;;;;;;;;;5048953;28;20629;-73
2021/04/15 18:56:50;;;;;;;9.33;5.70;;;;;;;;;;5035292;28;20604;-72
2021/04/15 18:59:55;;;;;;;10.67;5.40;;;;;;;;;;5049678;28;20566;-72
2021/04/15 19:02:59;;;;;;;12.73;5.60;;;;;;;;;;5049419;28;20562;-72
2021/04/15 19:06:07;;;;;;;16.97;8.90;;;;;;;;;;5043821;28;20626;-72
2021/04/15 19:09:11;;;;;;;24.83;11.93;;;;;;;;;;5029269;28;20904;-72
2021/04/15 19:12:16;;;;;;;17.13;9.57;;;;;;;;;;5033009;28;20614;-72
2021/04/15 19:15:20;;;;;;;30.33;15.03;;;;;;;;;;5048997;28;20650;-72
2021/04/15 19:18:28;;;;;;;36.97;18.90;;;;;;;;;;5029331;28;20619;-72
2021/04/15 19:21:32;;;;;;;18.67;10.40;;;;;;;;;;5017089;28;20639;-72